Time;durP1;ratioP1;P1;durP2;ratioP2;P2;SDS_P1;SDS_P2;PMS_P1;PMS_P2;Temp;Humidity;BMP_temperature;BMP_pressure;BME280_temperature;BME280_humidity;BME280_pressure;Samples;Min_cycle;Max_cycle;Signal;HPM_P1;HPM_P2
2022/02/18 00:00:00;;;;;;;12.83;3.83;;;8.10;99.70;;;;;;5070790;28;20451;-69
2022/02/18 00:02:27;;;;;;;13.97;4.00;;;8.10;99.70;;;;;;5071176;28;20439;-68
2022/02/18 00:04:53;;;;;;;19.03;3.07;;;8.00;99.70;;;;;;5070494;28;21020;-68
2022/02/18 00:07:20;;;;;;;23.50;3.60;;;8.00;99.70;;;;;;5071200;28;20545;-69
2022/02/18 00:09:47;;;;;;;8.97;3.10;;;8.00;99.70;;;;;;5069692;28;20825;-69
2022/02/18 00:12:15;;;;;;;13.43;3.03;;;8.10;99.70;;;;;;5070857;28;20454;-69
2022/02/18 00:14:42;;;;;;;17.87;3.20;;;8.10;99.70;;;;;;5070496;28;20989;-68
2022/02/18 00:17:08;;;;;;;20.10;4.17;;;8.00;99.70;;;;;;5070754;28;20558;-68
2022/02/18 00:19:35;;;;;;;15.20;3.50;;;8.00;99.70;;;;;;5070661;28;20496;-69
2022/02/18 00:22:03;;;;;;;16.67;4.80;;;7.80;99.70;;;;;;5070800;28;20536;-69
2022/02/18 00:24:30;;;;;;;11.47;3.67;;;7.90;99.70;;;;;;5070496;28;20883;-69
2022/02/18 00:26:57;;;;;;;22.37;3.53;;;7.90;99.70;;;;;;5070503;28;20494;-69
2022/02/18 00:29:25;;;;;;;15.43;4.40;;;7.90;99.70;;;;;;5069776;28;20834;-69
2022/02/18 00:31:52;;;;;;;19.77;4.07;;;8.00;99.70;;;;;;5069972;28;20454;-69
2022/02/18 00:34:18;;;;;;;15.83;3.47;;;8.00;99.70;;;;;;5069602;28;20449;-69
2022/02/18 00:36:45;;;;;;;18.07;4.50;;;8.00;99.70;;;;;;5069543;28;20492;-69
2022/02/18 00:39:12;;;;;;;18.30;4.40;;;8.00;99.70;;;;;;5069645;28;20526;-69
2022/02/18 00:41:39;;;;;;;16.77;3.40;;;8.00;99.70;;;;;;5069513;28;20961;-69
2022/02/18 00:44:06;;;;;;;15.97;3.33;;;8.00;99.70;;;;;;5069621;28;20451;-69
2022/02/18 00:46:34;;;;;;;17.63;3.40;;;8.00;99.70;;;;;;5068835;28;20479;-69
2022/02/18 00:49:01;;;;;;;15.77;4.33;;;8.00;99.70;;;;;;5069886;28;20446;-69
2022/02/18 00:51:28;;;;;;;16.33;3.23;;;8.00;99.70;;;;;;5070015;28;20458;-69
2022/02/18 00:53:55;;;;;;;14.60;3.27;;;7.90;99.70;;;;;;5070361;28;20458;-69
2022/02/18 00:56:21;;;;;;;12.63;4.07;;;8.00;99.70;;;;;;5069440;28;20473;-68
2022/02/18 00:58:48;;;;;;;17.30;3.83;;;8.10;99.70;;;;;;5069812;28;20454;-69
2022/02/18 01:01:15;;;;;;;13.70;3.30;;;8.10;99.70;;;;;;5070098;28;20443;-68
2022/02/18 01:03:43;;;;;;;15.27;3.07;;;8.00;99.70;;;;;;5069745;28;20452;-69
2022/02/18 01:06:09;;;;;;;21.73;4.27;;;8.00;99.70;;;;;;5069815;28;20490;-69
2022/02/18 01:08:36;;;;;;;19.20;3.50;;;7.90;99.70;;;;;;5069045;28;20439;-69
2022/02/18 01:11:03;;;;;;;21.20;3.60;;;8.00;99.70;;;;;;5069903;28;20862;-69
2022/02/18 01:13:29;;;;;;;19.40;4.00;;;8.10;99.70;;;;;;5059387;28;20447;-69
2022/02/18 01:15:56;;;;;;;15.53;3.57;;;8.10;99.70;;;;;;5069514;28;20854;-69
2022/02/18 01:18:23;;;;;;;12.20;3.10;;;8.10;99.70;;;;;;5069737;28;20443;-68
2022/02/18 01:20:51;;;;;;;13.37;3.30;;;8.00;99.70;;;;;;5069687;28;20455;-69
2022/02/18 01:23:18;;;;;;;12.20;3.30;;;8.00;99.70;;;;;;5069569;28;20458;-69
2022/02/18 01:25:44;;;;;;;11.67;3.80;;;8.00;99.70;;;;;;5069537;28;20482;-69
2022/02/18 01:28:11;;;;;;;14.10;3.97;;;8.20;99.70;;;;;;5069498;28;20504;-69
2022/02/18 01:30:38;;;;;;;8.87;3.00;;;8.20;99.70;;;;;;5069497;28;20447;-68
2022/02/18 01:33:06;;;;;;;11.33;3.27;;;8.20;99.70;;;;;;5069869;28;20477;-69
2022/02/18 01:35:33;;;;;;;19.33;3.20;;;8.20;99.70;;;;;;5069164;28;20463;-69
2022/02/18 01:38:02;;;;;;;11.30;3.30;;;8.20;99.70;;;;;;5069771;28;20818;-69
2022/02/18 01:40:30;;;;;;;13.40;3.57;;;8.10;99.70;;;;;;5068894;28;20443;-69
2022/02/18 01:42:57;;;;;;;21.07;3.73;;;8.10;99.70;;;;;;5069455;28;20447;-69
2022/02/18 01:45:23;;;;;;;21.33;5.80;;;8.20;99.70;;;;;;5069205;28;20464;-68
2022/02/18 01:47:50;;;;;;;16.90;3.70;;;8.10;99.70;;;;;;5069228;28;20881;-68
2022/02/18 01:50:17;;;;;;;12.70;3.60;;;8.20;99.70;;;;;;5069401;28;20447;-69
2022/02/18 01:52:47;;;;;;;14.30;3.40;;;8.20;99.70;;;;;;5069608;28;20942;-69
2022/02/18 01:55:16;;;;;;;20.90;4.20;;;8.20;99.70;;;;;;5068873;28;20447;-68
2022/02/18 01:57:46;;;;;;;13.57;3.20;;;8.20;99.70;;;;;;5072773;28;20451;-68
2022/02/18 02:00:15;;;;;;;17.70;4.07;;;8.10;99.70;;;;;;5062955;28;20443;-68
2022/02/18 02:02:43;;;;;;;17.20;3.77;;;8.10;99.70;;;;;;5073092;28;20446;-68
2022/02/18 02:05:11;;;;;;;13.13;3.50;;;8.10;99.70;;;;;;5072524;28;20527;-68
2022/02/18 02:07:39;;;;;;;15.90;3.90;;;8.10;99.70;;;;;;5072590;28;20447;-68
2022/02/18 02:10:07;;;;;;;12.70;2.90;;;8.00;99.70;;;;;;5072061;28;20454;-68
2022/02/18 02:12:40;;;;;;;11.37;3.17;;;8.00;99.70;;;;;;5072904;28;20517;-69
2022/02/18 02:15:07;;;;;;;15.33;3.30;;;8.00;99.70;;;;;;5072430;28;20449;-68
2022/02/18 02:17:34;;;;;;;13.03;3.00;;;8.20;99.70;;;;;;5072472;28;20952;-69
2022/02/18 02:22:46;;;;;;;14.37;3.30;;;8.20;99.70;;;;;;5069951;28;20455;-65
2022/02/18 02:25:13;;;;;;;14.83;4.27;;;8.10;99.70;;;;;;5071882;28;20489;-65
2022/02/18 02:27:40;;;;;;;17.63;3.77;;;8.00;99.70;;;;;;5073141;28;21004;-65
2022/02/18 02:30:09;;;;;;;17.63;3.10;;;8.00;99.70;;;;;;5072760;28;20458;-65
2022/02/18 02:32:36;;;;;;;23.60;3.90;;;7.90;99.70;;;;;;5052694;28;20951;-65
2022/02/18 02:35:03;;;;;;;13.20;2.83;;;7.90;99.70;;;;;;5052843;28;20872;-66
2022/02/18 02:37:29;;;;;;;11.67;2.87;;;7.80;99.70;;;;;;5052748;28;20447;-65
2022/02/18 02:39:57;;;;;;;9.83;2.87;;;7.90;99.70;;;;;;5052782;28;20459;-64
2022/02/18 02:42:24;;;;;;;11.13;3.07;;;7.90;99.70;;;;;;5042258;28;20464;-65
2022/02/18 02:44:51;;;;;;;12.83;3.80;;;8.10;99.70;;;;;;5052036;28;20448;-65
2022/02/18 02:47:18;;;;;;;14.93;3.70;;;8.00;99.70;;;;;;5052704;28;21075;-65
2022/02/18 02:49:44;;;;;;;11.60;2.97;;;8.00;99.70;;;;;;5052439;28;20958;-65
2022/02/18 02:52:11;;;;;;;13.07;3.10;;;7.90;99.70;;;;;;5052293;28;20456;-64
2022/02/18 02:54:39;;;;;;;11.30;2.87;;;7.90;99.70;;;;;;5052726;28;20466;-65
2022/02/18 02:57:07;;;;;;;12.13;3.10;;;7.80;99.70;;;;;;5051888;28;20436;-64
2022/02/18 02:59:33;;;;;;;17.40;4.30;;;7.80;99.70;;;;;;5052275;28;20456;-65
2022/02/18 03:02:00;;;;;;;17.27;3.53;;;7.80;99.70;;;;;;5041780;28;21064;-65
2022/02/18 03:04:27;;;;;;;10.07;3.10;;;7.80;99.70;;;;;;5052240;28;20452;-65
2022/02/18 03:06:54;;;;;;;18.67;3.00;;;7.80;99.70;;;;;;5051931;28;20549;-65
2022/02/18 03:09:21;;;;;;;10.67;2.80;;;7.90;99.70;;;;;;5050977;28;20439;-66
2022/02/18 03:11:48;;;;;;;13.83;3.60;;;7.90;99.70;;;;;;5051827;28;20483;-65
2022/02/18 03:14:16;;;;;;;15.63;2.73;;;7.80;99.70;;;;;;5052423;28;20917;-65
2022/02/18 03:16:42;;;;;;;13.63;3.30;;;7.90;99.70;;;;;;5051703;28;20816;-65
2022/02/18 03:19:09;;;;;;;13.97;5.07;;;8.10;99.70;;;;;;5051918;28;20444;-65
2022/02/18 03:21:36;;;;;;;12.03;2.40;;;8.00;99.70;;;;;;5041421;28;20476;-61
2022/02/18 03:24:03;;;;;;;11.10;3.20;;;7.90;99.70;;;;;;5051847;28;20444;-65
2022/02/18 03:26:30;;;;;;;16.37;3.07;;;7.90;99.70;;;;;;5051765;28;20488;-65
2022/02/18 03:28:57;;;;;;;13.13;2.97;;;7.90;99.70;;;;;;5051588;28;20566;-65
2022/02/18 03:31:25;;;;;;;10.93;2.70;;;7.90;99.70;;;;;;5051512;28;20494;-65
2022/02/18 03:33:51;;;;;;;10.23;3.10;;;7.90;99.70;;;;;;5052024;28;20444;-65
2022/02/18 03:36:18;;;;;;;13.23;3.10;;;8.00;99.70;;;;;;5051308;28;20816;-65
2022/02/18 03:38:45;;;;;;;12.57;2.90;;;8.00;99.70;;;;;;5051479;28;20506;-65
2022/02/18 03:41:11;;;;;;;12.50;3.30;;;7.90;99.70;;;;;;5051767;28;20463;-64
2022/02/18 03:43:38;;;;;;;11.80;3.00;;;7.80;99.70;;;;;;5051425;28;20843;-65
2022/02/18 03:46:05;;;;;;;12.43;3.10;;;7.80;99.70;;;;;;5051244;28;20605;-64
2022/02/18 03:48:33;;;;;;;13.47;2.87;;;7.80;99.70;;;;;;5050888;28;20447;-65
2022/02/18 03:51:00;;;;;;;12.93;3.10;;;7.80;99.70;;;;;;5051170;28;20492;-65
2022/02/18 03:53:27;;;;;;;14.40;3.40;;;7.80;99.70;;;;;;5051397;28;20472;-66
2022/02/18 03:55:55;;;;;;;12.50;3.43;;;7.90;99.70;;;;;;5051019;28;20478;-65
2022/02/18 03:58:22;;;;;;;14.40;3.03;;;7.90;99.70;;;;;;5051015;28;20535;-65
2022/02/18 04:00:49;;;;;;;15.43;3.40;;;7.80;99.70;;;;;;5040968;28;20847;-65
2022/02/18 04:03:16;;;;;;;13.57;3.53;;;7.90;99.70;;;;;;5050886;28;20443;-66
2022/02/18 04:05:44;;;;;;;10.77;3.63;;;7.80;99.70;;;;;;5050921;28;20448;-64
2022/02/18 04:08:11;;;;;;;9.27;2.80;;;7.80;99.70;;;;;;5038713;28;20557;-65
2022/02/18 04:10:37;;;;;;;13.53;4.13;;;7.80;99.70;;;;;;5050725;28;20848;-65
2022/02/18 04:13:04;;;;;;;10.30;2.80;;;7.80;99.70;;;;;;5051162;28;20443;-65
2022/02/18 04:15:33;;;;;;;15.30;3.53;;;7.70;99.70;;;;;;5050644;28;20448;-66
2022/02/18 04:17:59;;;;;;;11.50;3.27;;;7.70;99.70;;;;;;5050393;28;20446;-65
2022/02/18 04:20:27;;;;;;;11.57;2.80;;;7.60;99.70;;;;;;5050091;28;20494;-66
2022/02/18 04:22:55;;;;;;;8.43;3.50;;;7.60;99.70;;;;;;5050561;28;20451;-66
2022/02/18 04:25:22;;;;;;;13.63;3.10;;;7.60;99.70;;;;;;5050484;28;20480;-66
2022/02/18 04:27:56;;;;;;;18.27;3.20;;;7.60;99.70;;;;;;5050720;28;20479;-64
2022/02/18 04:30:24;;;;;;;10.70;4.63;;;7.70;99.70;;;;;;5050781;28;20443;-65
2022/02/18 04:32:51;;;;;;;12.43;3.10;;;7.60;99.70;;;;;;5050611;28;20467;-66
2022/02/18 04:35:19;;;;;;;15.80;3.63;;;7.70;99.70;;;;;;5049700;28;20444;-65
2022/02/18 04:37:46;;;;;;;18.40;4.03;;;7.60;99.70;;;;;;5050397;28;20447;-65
2022/02/18 04:40:16;;;;;;;15.43;3.53;;;7.60;99.70;;;;;;5050379;28;20451;-65
2022/02/18 04:42:43;;;;;;;7.77;2.70;;;7.70;99.70;;;;;;5050151;28;20947;-65
2022/02/18 04:45:11;;;;;;;13.73;3.10;;;7.70;99.70;;;;;;5049763;28;20478;-65
2022/02/18 04:47:38;;;;;;;7.77;2.60;;;7.80;99.70;;;;;;5050643;28;20564;-65
2022/02/18 04:50:05;;;;;;;12.90;3.57;;;7.90;99.70;;;;;;5050381;28;20440;-65
2022/02/18 04:52:33;;;;;;;20.00;4.77;;;7.80;99.70;;;;;;5050184;28;20467;-66
2022/02/18 04:55:00;;;;;;;13.20;3.43;;;7.90;99.70;;;;;;5040023;28;20455;-65
2022/02/18 04:57:28;;;;;;;10.97;2.63;;;7.90;99.70;;;;;;5050286;28;20443;-65
2022/02/18 04:59:55;;;;;;;12.73;2.83;;;7.90;99.70;;;;;;5050774;28;20480;-64
2022/02/18 05:02:22;;;;;;;19.97;4.77;;;7.90;99.70;;;;;;5049463;28;21035;-64
2022/02/18 05:04:49;;;;;;;18.20;3.30;;;7.90;99.70;;;;;;5049194;28;20443;-63
2022/02/18 05:07:16;;;;;;;11.53;2.77;;;8.00;99.70;;;;;;5048100;28;20487;-65
2022/02/18 05:09:44;;;;;;;10.63;3.03;;;8.00;99.70;;;;;;5050017;28;20527;-65
2022/02/18 05:12:11;;;;;;;12.63;3.40;;;8.00;99.70;;;;;;5050373;28;20870;-66
2022/02/18 05:14:39;;;;;;;13.20;3.10;;;8.00;99.70;;;;;;5050912;28;20492;-65
2022/02/18 05:17:06;;;;;;;11.03;2.80;;;8.10;99.70;;;;;;5050579;28;20961;-65
2022/02/18 05:19:32;;;;;;;9.00;3.57;;;8.10;99.70;;;;;;5050827;28;20448;-65
2022/02/18 05:21:59;;;;;;;18.90;4.00;;;8.10;99.70;;;;;;5050198;28;20478;-64
2022/02/18 05:24:26;;;;;;;11.53;2.83;;;8.00;99.70;;;;;;5050775;28;20442;-64
2022/02/18 05:26:52;;;;;;;15.60;3.53;;;8.10;99.70;;;;;;5049292;28;20487;-65
2022/02/18 05:29:19;;;;;;;11.57;2.97;;;8.00;99.70;;;;;;5050298;28;20466;-65
2022/02/18 05:31:47;;;;;;;19.63;4.83;;;8.00;99.70;;;;;;5052382;28;20475;-65
2022/02/18 05:34:14;;;;;;;12.97;3.53;;;8.00;99.70;;;;;;5054711;28;20443;-65
2022/02/18 05:36:41;;;;;;;14.53;4.30;;;8.10;99.70;;;;;;5054538;28;20501;-65
2022/02/18 05:39:24;;;;;;;12.80;4.10;;;8.10;99.70;;;;;;5054106;28;20450;-65
2022/02/18 05:41:51;;;;;;;11.70;3.60;;;8.20;99.70;;;;;;5054451;28;20467;-65
2022/02/18 05:44:18;;;;;;;16.43;4.63;;;8.20;99.70;;;;;;5054458;28;20483;-65
2022/02/18 05:46:46;;;;;;;18.20;3.70;;;8.30;99.70;;;;;;5053863;28;20482;-65
2022/02/18 05:49:13;;;;;;;11.20;3.80;;;8.20;99.70;;;;;;5053533;28;20969;-66
2022/02/18 05:51:40;;;;;;;15.73;5.70;;;8.20;99.70;;;;;;5054181;28;20471;-64
2022/02/18 05:54:07;;;;;;;16.00;5.00;;;8.20;99.70;;;;;;5054041;28;20449;-66
2022/02/18 05:56:34;;;;;;;20.30;7.33;;;8.20;99.70;;;;;;5054035;28;20934;-65
2022/02/18 05:59:02;;;;;;;16.07;5.03;;;8.20;99.70;;;;;;5053750;28;20439;-65
2022/02/18 06:01:28;;;;;;;13.13;4.63;;;8.20;99.70;;;;;;5053498;28;20469;-65
2022/02/18 06:03:56;;;;;;;15.63;3.67;;;8.20;99.70;;;;;;5053985;28;20443;-65
2022/02/18 06:06:23;;;;;;;16.33;3.53;;;8.20;99.70;;;;;;5053688;28;20448;-65
2022/02/18 06:08:50;;;;;;;12.37;4.17;;;8.30;99.70;;;;;;5053237;28;20479;-66
2022/02/18 06:11:17;;;;;;;18.80;4.70;;;8.20;99.70;;;;;;5053836;28;20471;-65
2022/02/18 06:13:43;;;;;;;13.80;3.70;;;8.20;99.70;;;;;;5053270;28;20447;-66
2022/02/18 06:16:10;;;;;;;12.37;3.37;;;8.30;99.70;;;;;;5053671;28;20497;-66
2022/02/18 06:18:37;;;;;;;12.40;3.30;;;8.40;99.70;;;;;;5053253;28;20828;-66
2022/02/18 06:21:05;;;;;;;11.93;3.47;;;8.40;99.70;;;;;;5051300;28;20495;-66
2022/02/18 06:23:32;;;;;;;13.27;3.60;;;8.30;99.70;;;;;;5041524;28;20499;-65
2022/02/18 06:25:59;;;;;;;17.13;3.20;;;8.30;99.70;;;;;;5053371;28;20523;-65
2022/02/18 06:28:26;;;;;;;16.47;4.50;;;8.20;99.70;;;;;;5053122;28;20486;-66
2022/02/18 06:30:53;;;;;;;13.60;3.53;;;8.30;99.70;;;;;;5053155;28;20562;-66
2022/02/18 06:33:20;;;;;;;14.60;3.40;;;8.30;99.70;;;;;;5052777;28;20439;-66
2022/02/18 06:35:46;;;;;;;14.63;4.00;;;8.30;99.70;;;;;;5046679;28;20890;-66
2022/02/18 06:38:15;;;;;;;15.67;3.53;;;8.30;99.70;;;;;;5037064;28;20455;-66
2022/02/18 06:40:41;;;;;;;13.70;3.40;;;8.30;99.70;;;;;;5050913;28;20468;-66
2022/02/18 06:43:08;;;;;;;11.80;2.90;;;8.30;99.70;;;;;;5050592;28;20448;-66
2022/02/18 06:45:35;;;;;;;12.60;3.83;;;8.40;99.70;;;;;;5052130;28;20440;-66
2022/02/18 06:48:01;;;;;;;10.37;3.13;;;8.50;99.70;;;;;;5052337;28;20836;-65
2022/02/18 06:50:28;;;;;;;13.03;3.87;;;8.50;99.70;;;;;;5052491;28;20452;-66
2022/02/18 06:52:56;;;;;;;18.00;4.00;;;8.40;99.70;;;;;;5052638;28;20444;-66
2022/02/18 06:55:25;;;;;;;15.20;4.07;;;8.50;99.70;;;;;;5051243;28;20857;-66
2022/02/18 06:57:54;;;;;;;14.40;3.63;;;8.50;99.70;;;;;;5051229;28;20985;-65
2022/02/18 07:00:21;;;;;;;17.40;3.70;;;8.60;99.70;;;;;;5052806;28;20448;-66
2022/02/18 07:02:48;;;;;;;17.33;4.00;;;8.50;99.70;;;;;;5052979;28;20452;-66
2022/02/18 07:05:15;;;;;;;13.10;4.37;;;8.60;99.70;;;;;;5051583;28;20447;-65
2022/02/18 07:07:43;;;;;;;15.93;3.80;;;8.70;99.70;;;;;;5052929;28;20484;-66
2022/02/18 07:10:11;;;;;;;9.10;3.60;;;8.70;99.70;;;;;;5051438;28;20448;-64
2022/02/18 07:12:41;;;;;;;20.73;4.30;;;8.70;99.70;;;;;;5052635;28;20463;-65
2022/02/18 07:15:09;;;;;;;14.17;3.60;;;8.70;99.70;;;;;;5052437;28;20520;-66
2022/02/18 07:17:36;;;;;;;23.87;4.60;;;8.70;99.70;;;;;;5052817;28;20448;-66
2022/02/18 07:20:04;;;;;;;13.50;3.70;;;8.70;99.70;;;;;;5052559;28;20451;-66
2022/02/18 07:22:42;;;;;;;23.33;4.57;;;8.70;99.70;;;;;;5052480;28;20480;-66
2022/02/18 07:25:09;;;;;;;19.60;3.97;;;8.70;99.70;;;;;;5052396;28;20452;-66
2022/02/18 07:27:36;;;;;;;21.00;5.03;;;8.70;99.70;;;;;;5052538;28;20475;-66
2022/02/18 07:30:05;;;;;;;13.97;4.00;;;8.80;99.70;;;;;;5052368;28;20470;-66
2022/02/18 07:32:32;;;;;;;17.47;4.40;;;8.80;99.70;;;;;;5052291;28;20999;-66
2022/02/18 07:34:58;;;;;;;13.70;4.00;;;8.80;99.70;;;;;;5052054;28;20443;-66
2022/02/18 07:37:25;;;;;;;15.13;3.77;;;8.80;99.70;;;;;;5052317;28;20970;-66
2022/02/18 07:39:53;;;;;;;26.20;4.40;;;8.80;99.70;;;;;;5052182;28;20455;-66
2022/02/18 07:42:19;;;;;;;17.60;3.60;;;8.80;99.70;;;;;;5052096;28;20543;-66
2022/02/18 07:44:46;;;;;;;17.90;4.00;;;8.80;99.70;;;;;;5051830;28;20443;-63
2022/02/18 07:47:15;;;;;;;18.40;3.97;;;8.80;99.70;;;;;;5039496;28;20917;-66
2022/02/18 07:49:43;;;;;;;14.87;3.70;;;8.80;99.70;;;;;;5051228;28;20456;-64
2022/02/18 07:52:10;;;;;;;13.63;3.70;;;8.80;99.70;;;;;;5045877;28;20510;-66
2022/02/18 07:54:38;;;;;;;14.03;4.10;;;8.80;99.70;;;;;;5046756;28;20471;-66
2022/02/18 07:57:05;;;;;;;15.87;3.60;;;8.90;99.70;;;;;;5044576;28;20527;-65
2022/02/18 07:59:32;;;;;;;14.03;3.70;;;8.80;99.70;;;;;;5044075;28;20551;-67
2022/02/18 08:01:59;;;;;;;19.00;4.73;;;8.80;99.70;;;;;;5049595;28;20466;-66
2022/02/18 08:04:27;;;;;;;15.00;4.60;;;8.80;99.70;;;;;;5050010;28;20448;-66
2022/02/18 08:06:54;;;;;;;18.77;3.50;;;8.80;99.70;;;;;;5049677;28;20451;-66
2022/02/18 08:09:21;;;;;;;10.23;3.77;;;8.90;99.70;;;;;;5048273;28;20479;-66
2022/02/18 08:11:47;;;;;;;13.93;3.90;;;8.90;99.70;;;;;;5049569;28;20491;-65
2022/02/18 08:14:14;;;;;;;11.43;4.20;;;9.00;99.70;;;;;;5049738;28;20444;-66
2022/02/18 08:16:41;;;;;;;9.37;3.67;;;9.10;99.70;;;;;;5049260;28;20452;-66
2022/02/18 08:19:07;;;;;;;17.50;3.90;;;9.20;99.70;;;;;;5049873;28;20440;-66
2022/02/18 08:21:35;;;;;;;18.30;3.90;;;9.20;99.70;;;;;;5093385;22;20487;-70
2022/02/18 08:24:02;;;;;;;14.20;3.40;;;9.30;99.70;;;;;;5065444;28;20466;-69
2022/02/18 08:26:32;;;;;;;11.57;3.30;;;9.40;99.70;;;;;;5064751;28;20439;-70
2022/02/18 08:28:58;;;;;;;11.20;3.17;;;9.40;99.70;;;;;;5052007;28;20479;-70
2022/02/18 08:31:25;;;;;;;9.13;3.00;;;9.50;99.70;;;;;;5067703;28;20989;-71
2022/02/18 08:33:52;;;;;;;11.13;3.00;;;9.60;99.70;;;;;;5068936;28;20447;-70
2022/02/18 08:36:19;;;;;;;10.40;2.87;;;9.70;99.70;;;;;;5067595;28;21134;-71
2022/02/18 08:38:47;;;;;;;7.30;2.43;;;9.80;99.70;;;;;;5069377;28;20447;-69
2022/02/18 08:41:14;;;;;;;10.57;2.80;;;9.90;99.70;;;;;;5067515;28;21012;-70
2022/02/18 08:43:41;;;;;;;7.87;2.80;;;9.90;99.70;;;;;;5069825;28;20450;-71
2022/02/18 08:46:07;;;;;;;8.30;2.20;;;10.00;99.70;;;;;;5055446;28;20484;-71
2022/02/18 08:48:34;;;;;;;5.93;2.10;;;10.10;99.70;;;;;;5067396;28;20486;-71
2022/02/18 08:51:01;;;;;;;11.63;2.60;;;10.20;99.70;;;;;;5067664;28;20955;-70
2022/02/18 08:53:28;;;;;;;6.83;2.10;;;10.30;99.70;;;;;;5069180;28;20457;-71
2022/02/18 08:55:57;;;;;;;8.67;2.40;;;10.40;99.70;;;;;;5067497;28;20477;-70
2022/02/18 08:58:23;;;;;;;5.80;1.90;;;10.60;99.70;;;;;;5050303;28;20471;-69
2022/02/18 09:00:51;;;;;;;6.50;1.90;;;10.70;99.70;;;;;;5067076;28;20516;-69
2022/02/18 09:03:19;;;;;;;8.50;2.67;;;10.80;99.70;;;;;;5068860;28;20941;-69
2022/02/18 09:05:46;;;;;;;4.50;2.20;;;10.90;99.70;;;;;;5070809;28;20443;-70
2022/02/18 09:08:14;;;;;;;11.63;2.47;;;11.00;99.70;;;;;;5073757;28;20569;-69
2022/02/18 09:10:44;;;;;;;7.07;1.90;;;11.00;99.70;;;;;;5075011;28;21070;-69
2022/02/18 09:13:12;;;;;;;6.10;2.10;;;11.10;99.70;;;;;;5073453;28;20481;-69
2022/02/18 09:15:39;;;;;;;4.50;1.80;;;11.20;99.70;;;;;;5073081;28;20486;-69
2022/02/18 09:18:05;;;;;;;3.57;1.63;;;11.20;99.70;;;;;;5071283;28;20467;-69
2022/02/18 09:20:33;;;;;;;5.70;2.00;;;11.30;99.70;;;;;;5061148;28;20534;-69
2022/02/18 09:22:59;;;;;;;2.20;1.50;;;11.40;99.70;;;;;;5055607;28;20499;-69
2022/02/18 09:25:26;;;;;;;4.20;1.90;;;11.30;99.70;;;;;;5061591;28;20451;-69
2022/02/18 09:27:53;;;;;;;3.70;1.83;;;11.40;99.70;;;;;;5070402;28;20836;-69
2022/02/18 09:30:22;;;;;;;7.27;2.60;;;11.50;99.70;;;;;;5074449;28;20541;-69
2022/02/18 09:32:50;;;;;;;4.90;1.67;;;11.60;99.70;;;;;;5073996;28;20519;-69
2022/02/18 09:35:17;;;;;;;2.80;1.50;;;11.70;99.70;;;;;;5074166;28;20454;-69
2022/02/18 09:37:44;;;;;;;4.53;1.60;;;11.80;99.70;;;;;;5074252;28;20969;-69
2022/02/18 09:40:13;;;;;;;4.70;1.77;;;12.00;99.70;;;;;;5074190;28;20822;-69
2022/02/18 09:42:42;;;;;;;6.00;1.70;;;12.10;99.70;;;;;;5074134;28;20495;-69
2022/02/18 09:45:10;;;;;;;3.93;1.50;;;12.20;99.70;;;;;;5073968;28;20442;-69
2022/02/18 09:47:41;;;;;;;4.13;1.70;;;12.20;99.70;;;;;;5073935;28;20443;-69
2022/02/18 09:50:09;;;;;;;3.90;1.90;;;12.30;99.70;;;;;;5074302;28;20517;-69
2022/02/18 09:52:36;;;;;;;3.60;1.60;;;12.40;99.70;;;;;;5073792;28;20520;-69
2022/02/18 09:55:04;;;;;;;3.13;1.50;;;12.40;99.70;;;;;;5073696;28;20443;-70
2022/02/18 09:57:31;;;;;;;3.70;1.60;;;12.50;99.70;;;;;;5073943;28;20532;-69
2022/02/18 09:59:58;;;;;;;7.40;1.73;;;12.50;99.70;;;;;;5073928;28;20445;-69
2022/02/18 10:02:25;;;;;;;3.30;1.87;;;12.60;99.70;;;;;;5073600;28;20561;-69
2022/02/18 10:04:53;;;;;;;3.60;1.60;;;12.60;99.70;;;;;;5073594;28;20445;-69
2022/02/18 10:07:20;;;;;;;6.80;1.80;;;12.70;99.70;;;;;;5073656;28;20443;-69
2022/02/18 10:09:48;;;;;;;4.33;1.80;;;12.70;99.70;;;;;;5072083;28;20486;-69
2022/02/18 10:12:15;;;;;;;5.33;1.57;;;12.70;99.70;;;;;;5073506;28;20557;-69
2022/02/18 10:14:59;;;;;;;5.40;1.70;;;12.90;99.70;;;;;;5073719;28;20451;-70
2022/02/18 10:17:38;;;;;;;3.37;1.63;;;13.00;99.70;;;;;;5072197;28;20468;-68
2022/02/18 10:20:16;;;;;;;3.20;1.80;;;13.10;99.70;;;;;;5073587;28;20446;-69
2022/02/18 10:22:56;;;;;;;2.83;1.43;;;13.30;99.70;;;;;;5073116;28;20478;-69
2022/02/18 10:25:24;;;;;;;3.20;1.60;;;13.50;99.70;;;;;;5073200;28;20449;-69
2022/02/18 10:27:52;;;;;;;2.63;1.70;;;13.50;99.70;;;;;;5072987;28;20491;-69
2022/02/18 10:30:22;;;;;;;5.93;1.73;;;13.60;99.70;;;;;;5072508;28;20797;-69
2022/02/18 10:32:51;;;;;;;3.70;1.90;;;13.70;99.70;;;;;;5072421;28;20953;-69
2022/02/18 10:35:22;;;;;;;4.00;1.50;;;13.80;99.70;;;;;;5072027;28;20447;-68
2022/02/18 10:37:51;;;;;;;3.70;1.70;;;13.80;99.70;;;;;;5073201;28;20457;-68
2022/02/18 10:40:20;;;;;;;2.63;1.40;;;13.80;99.70;;;;;;5072914;28;20470;-69
2022/02/18 10:42:48;;;;;;;6.50;1.70;;;13.60;99.70;;;;;;5072882;28;20478;-68
2022/02/18 10:45:18;;;;;;;2.37;1.40;;;13.50;99.70;;;;;;5072778;28;20449;-69
2022/02/18 10:47:46;;;;;;;3.10;1.50;;;13.20;99.70;;;;;;5072469;28;20819;-69
2022/02/18 10:50:20;;;;;;;6.13;1.87;;;13.10;99.70;;;;;;5072275;28;21002;-69
2022/02/18 10:53:12;;;;;;;7.50;1.67;;;13.20;99.70;;;;;;5072713;28;20524;-68
2022/02/18 10:55:49;;;;;;;9.20;2.23;;;13.30;99.70;;;;;;5072631;28;20439;-69
2022/02/18 10:58:20;;;;;;;2.90;1.50;;;13.30;99.70;;;;;;5072802;28;20946;-69
2022/02/18 11:00:47;;;;;;;5.40;1.90;;;13.50;99.70;;;;;;5070369;28;20474;-67
2022/02/18 11:03:26;;;;;;;2.50;1.60;;;13.80;99.70;;;;;;5085689;28;20491;-68
2022/02/18 11:05:54;;;;;;;5.23;1.80;;;14.00;99.70;;;;;;5092630;28;20469;-69
2022/02/18 11:08:30;;;;;;;2.77;1.47;;;14.10;99.70;;;;;;5092098;28;20434;-69
2022/02/18 11:10:57;;;;;;;3.57;1.60;;;14.20;99.70;;;;;;5092699;28;20872;-68
2022/02/18 11:13:24;;;;;;;7.33;1.80;;;14.20;99.70;;;;;;5092592;28;20474;-69
2022/02/18 11:15:52;;;;;;;3.70;1.53;;;14.10;99.70;;;;;;5092370;28;20437;-69
2022/02/18 11:18:19;;;;;;;6.37;2.13;;;14.50;99.70;;;;;;5092483;28;20522;-69
2022/02/18 11:20:46;;;;;;;3.20;1.60;;;14.60;99.70;;;;;;5092530;28;20524;-69
2022/02/18 11:23:15;;;;;;;3.80;1.93;;;14.70;99.70;;;;;;5092271;28;20489;-69
2022/02/18 11:25:42;;;;;;;7.00;2.23;;;14.70;99.70;;;;;;5092057;28;20541;-68
2022/02/18 11:28:10;;;;;;;3.83;1.90;;;14.50;99.70;;;;;;5092175;28;20473;-68
2022/02/18 11:30:39;;;;;;;6.37;1.90;;;14.80;99.70;;;;;;5092243;28;20828;-68
2022/02/18 11:33:18;;;;;;;6.97;1.50;;;15.00;99.70;;;;;;5092242;28;20473;-68
2022/02/18 11:36:20;;;;;;;6.60;1.97;;;14.70;99.70;;;;;;5092204;28;20445;-69
2022/02/18 11:39:05;;;;;;;4.97;1.83;;;14.50;99.70;;;;;;5091222;28;20437;-69
2022/02/18 11:41:46;;;;;;;7.03;2.23;;;14.20;99.70;;;;;;5092428;28;20465;-68
2022/02/18 11:44:14;;;;;;;13.87;2.40;;;14.40;99.70;;;;;;5092231;28;20449;-69
2022/02/18 11:46:41;;;;;;;7.20;1.77;;;14.60;99.70;;;;;;5092005;28;20470;-68
2022/02/18 11:49:09;;;;;;;7.17;1.77;;;14.90;99.70;;;;;;5092006;28;20984;-68
2022/02/18 11:51:44;;;;;;;5.00;1.73;;;14.80;99.70;;;;;;5091873;28;20465;-67
2022/02/18 11:54:27;;;;;;;2.63;1.60;;;14.80;99.70;;;;;;5091987;28;20974;-69
2022/02/18 11:57:00;;;;;;;4.23;2.77;;;14.90;99.70;;;;;;5088659;28;20460;-69
2022/02/18 11:59:42;;;;;;;4.20;1.70;;;14.70;99.70;;;;;;5091644;28;20472;-68
2022/02/18 12:02:09;;;;;;;9.23;2.73;;;14.90;99.70;;;;;;5091422;28;20505;-68
2022/02/18 12:04:37;;;;;;;5.70;1.60;;;14.90;99.70;;;;;;5091843;28;20437;-68
2022/02/18 12:07:23;;;;;;;5.47;1.80;;;15.20;99.70;;;;;;5091794;28;20442;-69
2022/02/18 12:10:06;;;;;;;8.53;2.00;;;15.30;99.70;;;;;;5091125;28;20484;-69
2022/02/18 12:12:35;;;;;;;3.77;1.80;;;15.20;99.70;;;;;;5091627;28;20461;-69
2022/02/18 12:15:13;;;;;;;8.63;1.50;;;14.90;99.70;;;;;;5091358;28;20499;-69
2022/02/18 12:17:42;;;;;;;4.37;2.20;;;15.30;99.70;;;;;;5091584;28;20525;-71
2022/02/18 12:20:17;;;;;;;3.53;1.50;;;15.10;99.70;;;;;;5091602;28;20430;-68
2022/02/18 12:22:44;;;;;;;5.17;2.37;;;15.20;99.70;;;;;;5091063;28;20476;-68
2022/02/18 12:25:21;;;;;;;3.70;1.60;;;15.00;99.70;;;;;;5091154;28;20446;-68
2022/02/18 12:27:48;;;;;;;3.57;1.80;;;15.30;99.70;;;;;;5061570;28;20444;-67
2022/02/18 12:30:40;;;;;;;2.80;1.60;;;15.10;99.70;;;;;;5049042;28;20482;-68
2022/02/18 12:33:07;;;;;;;5.83;1.60;;;15.00;99.70;;;;;;5051001;28;20487;-69
2022/02/18 12:35:34;;;;;;;3.10;1.60;;;15.10;99.70;;;;;;5050680;28;20456;-70
2022/02/18 12:38:06;;;;;;;5.43;1.90;;;15.10;99.70;;;;;;5050943;28;20454;-70
2022/02/18 12:40:37;;;;;;;4.97;2.00;;;14.80;99.70;;;;;;5050255;28;20982;-70
2022/02/18 12:43:07;;;;;;;4.53;1.50;;;15.10;99.70;;;;;;5050113;28;20471;-69
2022/02/18 12:45:44;;;;;;;6.20;1.50;;;15.00;99.70;;;;;;5050727;28;20549;-71
2022/02/18 12:48:10;;;;;;;6.53;1.50;;;15.30;99.70;;;;;;5050722;28;20451;-70
2022/02/18 12:50:39;;;;;;;4.67;1.60;;;15.30;99.70;;;;;;5050896;28;20545;-70
2022/02/18 12:53:07;;;;;;;6.77;1.50;;;15.30;99.70;;;;;;5050334;28;20978;-70
2022/02/18 12:55:37;;;;;;;3.00;1.67;;;15.10;99.70;;;;;;5050596;28;20447;-70